Wetterdaten: Woche 09.11.15 - 15.11.15 (KW46)
Datum Zeit Temp. A. Feuchte A. Luftdruck Regen Wind Richtung Sonnenschein ET UV Solar Taupunkt Windchill Windben Empfang
09.11.2015 00:00 11,0 C 99 % 1024,7 hPa 0,0 l/m 0,4 km/h (0 Bft) SW 0,00 h 0,000 mm 0,0 UV-I 0 W/m 10,9 C 11,0 C 0,9 km/h (0 Bft) 99,59 %
09.11.2015 01:00 10,9 C 99 % 1024,3 hPa 0,0 l/m 1,0 km/h (0 Bft) SW 0,00 h 0,000 mm 0,0 UV-I 0 W/m 10,8 C 10,9 C 1,8 km/h (1 Bft) 99,30 %
09.11.2015 02:00 10,8 C 99 % 1024,2 hPa 0,0 l/m 1,3 km/h (1 Bft) SW 0,00 h 0,000 mm 0,0 UV-I 0 W/m 10,6 C 10,8 C 2,6 km/h (1 Bft) 99,04 %
09.11.2015 03:00 10,4 C 99 % 1023,9 hPa 0,0 l/m 1,6 km/h (1 Bft) SW 0,00 h 0,000 mm 0,0 UV-I 0 W/m 10,3 C 10,4 C 2,9 km/h (1 Bft) 99,31 %
09.11.2015 04:00 10,3 C 99 % 1023,7 hPa 0,0 l/m 2,5 km/h (1 Bft) SW 0,00 h 0,000 mm 0,0 UV-I 0 W/m 10,2 C 10,3 C 4,4 km/h (1 Bft) 99,51 %
09.11.2015 05:00 10,1 C 99 % 1023,9 hPa 0,0 l/m 1,2 km/h (1 Bft) W-SW 0,00 h 0,000 mm 0,0 UV-I 0 W/m 9,9 C 10,1 C 2,5 km/h (1 Bft) 99,41 %
09.11.2015 06:00 9,9 C 99 % 1024,4 hPa 0,0 l/m 0,8 km/h (0 Bft) W-SW 0,00 h 0,000 mm 0,0 UV-I 0 W/m 9,8 C 9,9 C 2,0 km/h (1 Bft) 99,28 %
09.11.2015 07:00 9,6 C 99 % 1025,2 hPa 0,0 l/m 2,3 km/h (1 Bft) W 0,03 h 0,000 mm 0,0 UV-I 21 W/m 9,4 C 9,6 C 4,0 km/h (1 Bft) 99,07 %
09.11.2015 08:00 9,3 C 99 % 1025,4 hPa 0,0 l/m 2,8 km/h (1 Bft) SW 0,00 h 0,000 mm 0,0 UV-I 67 W/m 9,2 C 9,3 C 4,5 km/h (1 Bft) 99,00 %
09.11.2015 09:00 9,8 C 99 % 1025,5 hPa 0,0 l/m 2,5 km/h (1 Bft) W 0,25 h 0,025 mm 0,5 UV-I 163 W/m 9,7 C 9,8 C 4,0 km/h (1 Bft) 99,18 %
09.11.2015 10:00 10,6 C 99 % 1025,1 hPa 0,0 l/m 0,6 km/h (0 Bft) N 0,00 h 0,077 mm 0,6 UV-I 119 W/m 10,4 C 10,6 C 1,7 km/h (1 Bft) 99,09 %
09.11.2015 11:00 11,3 C 99 % 1024,7 hPa 2,0 l/m 2,4 km/h (1 Bft) N 0,02 h 0,050 mm 0,6 UV-I 76 W/m 11,2 C 11,3 C 4,2 km/h (1 Bft) 99,17 %
09.11.2015 12:00 12,2 C 98 % 1024,2 hPa 0,4 l/m 1,2 km/h (1 Bft) S 0,02 h 0,026 mm 0,6 UV-I 72 W/m 11,8 C 12,2 C 2,7 km/h (1 Bft) 98,24 %
09.11.2015 13:00 12,8 C 97 % 1024,1 hPa 0,0 l/m 2,0 km/h (1 Bft) SW 0,00 h 0,025 mm 0,4 UV-I 81 W/m 12,3 C 12,8 C 3,4 km/h (1 Bft) 99,73 %
09.11.2015 14:00 13,4 C 95 % 1024,2 hPa 0,0 l/m 0,8 km/h (0 Bft) N-NO 0,00 h 0,051 mm 0,0 UV-I 64 W/m 12,6 C 13,4 C 1,6 km/h (1 Bft) 98,68 %
09.11.2015 15:00 13,5 C 96 % 1024,2 hPa 0,0 l/m 0,9 km/h (0 Bft) S-SO 0,00 h 0,025 mm 0,0 UV-I 46 W/m 12,9 C 13,5 C 1,8 km/h (1 Bft) 98,94 %
09.11.2015 16:00 14,1 C 92 % 1024,1 hPa 0,0 l/m 2,6 km/h (1 Bft) W-SW 0,00 h 0,026 mm 0,0 UV-I 10 W/m 12,9 C 14,1 C 4,6 km/h (1 Bft) 99,04 %
09.11.2015 17:00 16,2 C 81 % 1024,1 hPa 0,2 l/m 7,5 km/h (2 Bft) W 0,00 h 0,000 mm 0,0 UV-I 0 W/m 12,9 C 15,4 C 12,2 km/h (2 Bft) 98,81 %
09.11.2015 18:00 16,7 C 75 % 1024,5 hPa 0,0 l/m 9,7 km/h (2 Bft) W 0,00 h 0,025 mm 0,0 UV-I 0 W/m 12,3 C 15,2 C 15,6 km/h (3 Bft) 99,03 %
09.11.2015 19:00 16,1 C 77 % 1025,1 hPa 0,0 l/m 6,6 km/h (2 Bft) W 0,00 h 0,026 mm 0,0 UV-I 0 W/m 12,0 C 15,7 C 11,2 km/h (2 Bft) 98,59 %
09.11.2015 20:00 15,7 C 78 % 1025,5 hPa 0,0 l/m 7,7 km/h (2 Bft) W 0,00 h 0,025 mm 0,0 UV-I 0 W/m 12,0 C 14,9 C 12,4 km/h (3 Bft) 98,66 %
09.11.2015 21:00 15,7 C 75 % 1025,7 hPa 0,0 l/m 9,3 km/h (2 Bft) W 0,00 h 0,025 mm 0,0 UV-I 0 W/m 11,3 C 14,3 C 15,6 km/h (3 Bft) 99,07 %
09.11.2015 22:00 15,4 C 73 % 1025,4 hPa 0,0 l/m 6,8 km/h (2 Bft) W 0,00 h 0,026 mm 0,0 UV-I 0 W/m 10,6 C 14,8 C 11,3 km/h (2 Bft) 99,31 %
09.11.2015 23:00 15,1 C 75 % 1025,2 hPa 0,0 l/m 8,7 km/h (2 Bft) W 0,00 h 0,025 mm 0,0 UV-I 0 W/m 10,8 C 13,9 C 14,1 km/h (3 Bft) 99,24 %
10.11.2015 00:00 14,9 C 76 % 1025,0 hPa 0,0 l/m 9,1 km/h (2 Bft) W 0,00 h 0,000 mm 0,0 UV-I 0 W/m 10,8 C 13,5 C 14,4 km/h (3 Bft) 99,57 %
10.11.2015 01:00 15,1 C 75 % 1025,2 hPa 0,0 l/m 9,5 km/h (2 Bft) W 0,00 h 0,025 mm 0,0 UV-I 0 W/m 10,8 C 13,5 C 15,3 km/h (3 Bft) 99,21 %
10.11.2015 02:00 14,9 C 73 % 1025,3 hPa 0,0 l/m 9,6 km/h (2 Bft) W 0,00 h 0,026 mm 0,0 UV-I 0 W/m 10,1 C 13,2 C 15,3 km/h (3 Bft) 99,26 %
10.11.2015 03:00 14,9 C 65 % 1024,9 hPa 0,0 l/m 12,5 km/h (3 Bft) W 0,00 h 0,025 mm 0,0 UV-I 0 W/m 8,3 C 12,0 C 19,3 km/h (3 Bft) 99,03 %
10.11.2015 04:00 14,7 C 59 % 1024,9 hPa 0,0 l/m 8,3 km/h (2 Bft) W 0,00 h 0,051 mm 0,0 UV-I 0 W/m 6,8 C 13,6 C 13,1 km/h (3 Bft) 99,16 %
10.11.2015 05:00 14,6 C 53 % 1024,7 hPa 0,0 l/m 9,7 km/h (2 Bft) W 0,00 h 0,051 mm 0,0 UV-I 0 W/m 5,2 C 12,9 C 14,9 km/h (3 Bft) 98,94 %
10.11.2015 06:00 13,7 C 58 % 1024,5 hPa 0,0 l/m 5,3 km/h (1 Bft) W 0,00 h 0,051 mm 0,0 UV-I 4 W/m 5,4 C 13,4 C 8,6 km/h (2 Bft) 99,30 %
10.11.2015 07:00 12,9 C 65 % 1024,6 hPa 0,0 l/m 3,6 km/h (1 Bft) W 0,03 h 0,025 mm 0,0 UV-I 23 W/m 6,5 C 12,9 C 5,5 km/h (1 Bft) 99,29 %
10.11.2015 08:00 14,0 C 70 % 1024,7 hPa 0,0 l/m 6,1 km/h (2 Bft) W 0,30 h 0,025 mm 0,4 UV-I 109 W/m 8,6 C 13,7 C 10,3 km/h (2 Bft) 98,96 %
10.11.2015 09:00 15,8 C 59 % 1024,9 hPa 0,0 l/m 10,8 km/h (2 Bft) W 0,28 h 0,077 mm 0,6 UV-I 143 W/m 7,9 C 13,8 C 17,5 km/h (3 Bft) 99,16 %
10.11.2015 10:00 16,2 C 55 % 1025,0 hPa 0,0 l/m 10,1 km/h (2 Bft) W 0,00 h 0,127 mm 0,9 UV-I 162 W/m 7,1 C 14,4 C 16,4 km/h (3 Bft) 98,87 %
10.11.2015 11:00 16,4 C 53 % 1025,0 hPa 0,0 l/m 7,5 km/h (2 Bft) W 0,00 h 0,152 mm 0,7 UV-I 105 W/m 6,8 C 15,6 C 12,8 km/h (3 Bft) 99,37 %
10.11.2015 12:00 16,3 C 54 % 1024,2 hPa 0,0 l/m 8,1 km/h (2 Bft) W 0,00 h 0,102 mm 0,6 UV-I 95 W/m 7,1 C 15,4 C 13,8 km/h (3 Bft) 99,07 %
10.11.2015 13:00 16,7 C 53 % 1023,7 hPa 0,0 l/m 7,4 km/h (2 Bft) W 0,00 h 0,101 mm 0,5 UV-I 118 W/m 7,1 C 16,1 C 12,0 km/h (2 Bft) 98,75 %
10.11.2015 14:00 17,5 C 51 % 1023,5 hPa 0,0 l/m 5,7 km/h (1 Bft) W 0,63 h 0,127 mm 0,5 UV-I 198 W/m 7,3 C 17,3 C 9,6 km/h (2 Bft) 99,01 %
10.11.2015 15:00 17,4 C 54 % 1023,2 hPa 0,0 l/m 7,1 km/h (2 Bft) W-SW 0,40 h 0,153 mm 0,0 UV-I 84 W/m 8,0 C 17,0 C 12,1 km/h (2 Bft) 99,23 %
10.11.2015 16:00 16,3 C 58 % 1023,0 hPa 0,0 l/m 5,2 km/h (1 Bft) W 0,05 h 0,101 mm 0,0 UV-I 13 W/m 7,9 C 16,0 C 8,6 km/h (2 Bft) 98,84 %
10.11.2015 17:00 14,0 C 67 % 1022,9 hPa 0,0 l/m 0,6 km/h (0 Bft) S-SO 0,00 h 0,051 mm 0,0 UV-I 0 W/m 8,0 C 14,0 C 1,4 km/h (1 Bft) 98,76 %
10.11.2015 18:00 12,8 C 71 % 1023,2 hPa 0,0 l/m 0,3 km/h (0 Bft) S 0,00 h 0,000 mm 0,0 UV-I 0 W/m 7,7 C 12,8 C 0,6 km/h (0 Bft) 99,17 %
10.11.2015 19:00 13,9 C 65 % 1023,6 hPa 0,0 l/m 4,1 km/h (1 Bft) SW 0,00 h 0,000 mm 0,0 UV-I 0 W/m 7,5 C 13,8 C 6,1 km/h (2 Bft) 99,40 %
10.11.2015 20:00 14,4 C 61 % 1023,7 hPa 0,0 l/m 4,4 km/h (1 Bft) SW 0,00 h 0,025 mm 0,0 UV-I 0 W/m 7,1 C 14,4 C 6,7 km/h (2 Bft) 99,57 %
10.11.2015 21:00 14,3 C 58 % 1023,9 hPa 0,0 l/m 4,5 km/h (1 Bft) W 0,00 h 0,026 mm 0,0 UV-I 0 W/m 6,3 C 14,3 C 7,1 km/h (2 Bft) 99,55 %
10.11.2015 22:00 14,9 C 57 % 1024,3 hPa 0,0 l/m 5,1 km/h (1 Bft) W 0,00 h 0,025 mm 0,0 UV-I 0 W/m 6,3 C 14,8 C 8,3 km/h (2 Bft) 99,34 %
10.11.2015 23:00 13,6 C 64 % 1024,2 hPa 0,0 l/m 3,6 km/h (1 Bft) SW 0,00 h 0,026 mm 0,0 UV-I 0 W/m 6,9 C 13,6 C 5,6 km/h (1 Bft) 98,96 %
11.11.2015 00:00 12,7 C 67 % 1023,9 hPa 0,0 l/m 2,9 km/h (1 Bft) SW 0,00 h 0,000 mm 0,0 UV-I 0 W/m 6,8 C 12,7 C 4,6 km/h (1 Bft) 99,35 %
11.11.2015 01:00 12,9 C 65 % 1023,7 hPa 0,0 l/m 3,5 km/h (1 Bft) W 0,00 h 0,025 mm 0,0 UV-I 0 W/m 6,5 C 12,9 C 5,7 km/h (1 Bft) 99,40 %
11.11.2015 02:00 13,0 C 66 % 1023,9 hPa 0,0 l/m 3,0 km/h (1 Bft) W 0,00 h 0,026 mm 0,0 UV-I 0 W/m 6,8 C 13,0 C 4,8 km/h (1 Bft) 99,70 %
11.11.2015 03:00 13,1 C 66 % 1023,9 hPa 0,0 l/m 3,8 km/h (1 Bft) W 0,00 h 0,025 mm 0,0 UV-I 0 W/m 6,8 C 13,1 C 6,1 km/h (2 Bft) 99,37 %
11.11.2015 04:00 12,9 C 68 % 1024,3 hPa 0,0 l/m 1,3 km/h (1 Bft) W 0,00 h 0,026 mm 0,0 UV-I 0 W/m 7,1 C 12,9 C 2,6 km/h (1 Bft) 99,80 %
11.11.2015 05:00 12,5 C 69 % 1024,4 hPa 0,0 l/m 3,3 km/h (1 Bft) SW 0,00 h 0,000 mm 0,0 UV-I 0 W/m 6,9 C 12,5 C 5,1 km/h (1 Bft) 99,47 %
11.11.2015 06:00 12,1 C 72 % 1024,1 hPa 0,0 l/m 4,7 km/h (1 Bft) W 0,00 h 0,025 mm 0,0 UV-I 0 W/m 7,2 C 11,9 C 7,3 km/h (2 Bft) 99,41 %
11.11.2015 07:00 11,4 C 81 % 1024,2 hPa 0,0 l/m 5,3 km/h (1 Bft) W 0,00 h 0,025 mm 0,0 UV-I 16 W/m 8,3 C 11,1 C 7,9 km/h (2 Bft) 99,43 %
11.11.2015 08:00 11,5 C 84 % 1024,7 hPa 0,0 l/m 1,2 km/h (1 Bft) N 0,05 h 0,026 mm 0,0 UV-I 72 W/m 8,9 C 11,5 C 2,6 km/h (1 Bft) 99,02 %
11.11.2015 09:00 12,7 C 83 % 1025,2 hPa 0,0 l/m 2,7 km/h (1 Bft) W 0,25 h 0,051 mm 0,5 UV-I 142 W/m 10,0 C 12,7 C 4,9 km/h (1 Bft) 99,57 %
11.11.2015 10:00 13,9 C 74 % 1025,5 hPa 0,0 l/m 3,2 km/h (1 Bft) W-NW 0,28 h 0,076 mm 0,8 UV-I 187 W/m 9,4 C 13,9 C 5,9 km/h (2 Bft) 99,20 %
11.11.2015 11:00 15,2 C 70 % 1025,2 hPa 0,0 l/m 4,3 km/h (1 Bft) W 0,60 h 0,101 mm 1,3 UV-I 364 W/m 9,6 C 15,1 C 7,8 km/h (2 Bft) 99,28 %
11.11.2015 12:00 16,0 C 63 % 1025,1 hPa 0,0 l/m 2,7 km/h (1 Bft) W-NW 1,00 h 0,204 mm 1,4 UV-I 383 W/m 8,8 C 15,9 C 5,3 km/h (1 Bft) 99,35 %
11.11.2015 13:00 15,6 C 70 % 1024,8 hPa 0,0 l/m 3,3 km/h (1 Bft) N 1,00 h 0,228 mm 1,0 UV-I 323 W/m 10,1 C 15,6 C 5,7 km/h (1 Bft) 99,29 %
11.11.2015 14:00 15,8 C 72 % 1024,5 hPa 0,0 l/m 3,6 km/h (1 Bft) W 0,92 h 0,178 mm 0,6 UV-I 215 W/m 10,9 C 15,8 C 6,4 km/h (2 Bft) 98,83 %
11.11.2015 15:00 15,0 C 76 % 1024,4 hPa 0,0 l/m 1,8 km/h (1 Bft) W 0,70 h 0,127 mm 0,0 UV-I 88 W/m 10,8 C 15,0 C 3,7 km/h (1 Bft) 99,66 %
11.11.2015 16:00 13,1 C 83 % 1024,4 hPa 0,0 l/m 0,6 km/h (0 Bft) S-SW 0,03 h 0,051 mm 0,0 UV-I 12 W/m 10,3 C 13,1 C 1,2 km/h (1 Bft) 98,87 %
11.11.2015 17:00 10,9 C 90 % 1024,5 hPa 0,0 l/m 1,3 km/h (1 Bft) S-SO 0,00 h 0,000 mm 0,0 UV-I 0 W/m 9,4 C 10,9 C 2,1 km/h (1 Bft) 99,45 %
11.11.2015 18:00 9,9 C 93 % 1024,6 hPa 0,0 l/m 0,3 km/h (0 Bft) SO 0,00 h 0,000 mm 0,0 UV-I 0 W/m 8,8 C 9,9 C 0,8 km/h (0 Bft) 99,10 %
11.11.2015 19:00 9,2 C 94 % 1024,6 hPa 0,0 l/m 0,3 km/h (0 Bft) SO 0,00 h 0,000 mm 0,0 UV-I 0 W/m 8,4 C 9,2 C 0,8 km/h (0 Bft) 99,02 %
11.11.2015 20:00 8,5 C 96 % 1024,9 hPa 0,0 l/m 0,3 km/h (0 Bft) S-SO 0,00 h 0,000 mm 0,0 UV-I 0 W/m 7,9 C 8,5 C 0,9 km/h (0 Bft) 99,43 %
11.11.2015 21:00 8,1 C 96 % 1025,1 hPa 0,0 l/m 0,2 km/h (0 Bft) S-SO 0,00 h 0,000 mm 0,0 UV-I 0 W/m 7,5 C 8,1 C 0,9 km/h (0 Bft) 99,45 %
11.11.2015 22:00 7,8 C 94 % 1025,1 hPa 0,0 l/m 1,4 km/h (1 Bft) S-SW 0,00 h 0,000 mm 0,0 UV-I 0 W/m 6,9 C 7,8 C 2,3 km/h (1 Bft) 99,26 %
11.11.2015 23:00 7,5 C 93 % 1025,1 hPa 0,0 l/m 1,3 km/h (1 Bft) S-SW 0,00 h 0,000 mm 0,0 UV-I 0 W/m 6,5 C 7,5 C 2,4 km/h (1 Bft) 99,25 %
12.11.2015 00:00 7,0 C 92 % 1024,9 hPa 0,0 l/m 1,2 km/h (1 Bft) S 0,00 h 0,000 mm 0,0 UV-I 0 W/m 5,8 C 7,0 C 2,3 km/h (1 Bft) 99,32 %
12.11.2015 01:00 6,5 C 94 % 1025,0 hPa 0,0 l/m 0,9 km/h (0 Bft) S 0,00 h 0,000 mm 0,0 UV-I 0 W/m 5,5 C 6,5 C 1,8 km/h (1 Bft) 99,22 %
12.11.2015 02:00 5,7 C 94 % 1025,2 hPa 0,0 l/m 1,1 km/h (0 Bft) S-SW 0,00 h 0,000 mm 0,0 UV-I 0 W/m 4,8 C 5,7 C 2,1 km/h (1 Bft) 98,54 %
12.11.2015 03:00 5,7 C 95 % 1025,2 hPa 0,0 l/m 1,5 km/h (1 Bft) S-SW 0,00 h 0,000 mm 0,0 UV-I 0 W/m 4,9 C 5,7 C 2,7 km/h (1 Bft) 99,11 %
12.11.2015 04:00 4,9 C 96 % 1025,5 hPa 0,0 l/m 0,2 km/h (0 Bft) S-SO 0,00 h 0,000 mm 0,0 UV-I 0 W/m 4,3 C 4,9 C 0,6 km/h (0 Bft) 98,89 %
12.11.2015 05:00 4,2 C 96 % 1026,2 hPa 0,0 l/m 0,1 km/h (0 Bft) S-SO 0,00 h 0,000 mm 0,0 UV-I 0 W/m 3,6 C 4,2 C 0,5 km/h (0 Bft) 98,95 %
12.11.2015 06:00 4,1 C 96 % 1026,6 hPa 0,0 l/m 0,9 km/h (0 Bft) S-SW 0,00 h 0,000 mm 0,0 UV-I 2 W/m 3,6 C 4,1 C 2,0 km/h (1 Bft) 99,17 %
12.11.2015 07:00 4,6 C 96 % 1027,2 hPa 0,0 l/m 2,7 km/h (1 Bft) S-SW 0,28 h 0,000 mm 0,0 UV-I 30 W/m 4,0 C 4,6 C 4,4 km/h (1 Bft) 99,60 %
12.11.2015 08:00 6,6 C 92 % 1028,2 hPa 0,0 l/m 4,1 km/h (1 Bft) W 0,98 h 0,025 mm 0,0 UV-I 132 W/m 5,4 C 6,6 C 6,5 km/h (2 Bft) 99,34 %
12.11.2015 09:00 8,0 C 90 % 1029,1 hPa 0,0 l/m 4,3 km/h (1 Bft) W 0,10 h 0,051 mm 0,4 UV-I 115 W/m 6,4 C 7,9 C 7,1 km/h (2 Bft) 99,36 %
12.11.2015 10:00 9,1 C 88 % 1029,4 hPa 0,0 l/m 4,8 km/h (1 Bft) SW 0,00 h 0,051 mm 0,7 UV-I 149 W/m 7,3 C 9,1 C 7,4 km/h (2 Bft) 99,47 %
12.11.2015 11:00 10,4 C 84 % 1029,3 hPa 0,0 l/m 6,0 km/h (2 Bft) SW 0,28 h 0,076 mm 0,9 UV-I 228 W/m 7,7 C 10,1 C 9,3 km/h (2 Bft) 99,31 %
12.11.2015 12:00 11,2 C 80 % 1028,8 hPa 0,0 l/m 6,3 km/h (2 Bft) SW 0,40 h 0,127 mm 1,0 UV-I 233 W/m 7,8 C 10,9 C 9,8 km/h (2 Bft) 99,16 %
12.11.2015 13:00 12,3 C 75 % 1028,3 hPa 0,0 l/m 4,3 km/h (1 Bft) W 1,00 h 0,127 mm 0,8 UV-I 320 W/m 8,0 C 12,2 C 7,2 km/h (2 Bft) 99,59 %
12.11.2015 14:00 11,9 C 77 % 1028,2 hPa 0,0 l/m 2,0 km/h (1 Bft) N-NO 0,42 h 0,178 mm 0,6 UV-I 153 W/m 8,0 C 11,9 C 3,7 km/h (1 Bft) 99,79 %
12.11.2015 15:00 11,5 C 77 % 1028,2 hPa 0,0 l/m 1,5 km/h (1 Bft) N-NO 0,03 h 0,076 mm 0,0 UV-I 51 W/m 7,6 C 11,5 C 2,7 km/h (1 Bft) 98,89 %
12.11.2015 16:00 10,1 C 81 % 1028,2 hPa 0,0 l/m 0,7 km/h (0 Bft) N-NO 0,13 h 0,026 mm 0,0 UV-I 15 W/m 7,0 C 10,1 C 1,7 km/h (1 Bft) 99,46 %
12.11.2015 17:00 7,8 C 88 % 1028,3 hPa 0,0 l/m 0,9 km/h (0 Bft) SO 0,00 h 0,000 mm 0,0 UV-I 0 W/m 6,0 C 7,8 C 1,6 km/h (1 Bft) 99,05 %
12.11.2015 18:00 6,8 C 91 % 1028,3 hPa 0,0 l/m 0,1 km/h (0 Bft) SO 0,00 h 0,000 mm 0,0 UV-I 0 W/m 5,4 C 6,8 C 0,2 km/h (0 Bft) 99,51 %
12.11.2015 19:00 6,1 C 93 % 1028,3 hPa 0,0 l/m 0,0 km/h (0 Bft) N 0,00 h 0,000 mm 0,0 UV-I 0 W/m 5,0 C 6,1 C 0,3 km/h (0 Bft) 99,44 %
12.11.2015 20:00 5,9 C 93 % 1027,9 hPa 0,0 l/m 0,4 km/h (0 Bft) O 0,00 h 0,000 mm 0,0 UV-I 0 W/m 4,9 C 5,9 C 1,1 km/h (0 Bft) 98,98 %
12.11.2015 21:00 5,5 C 96 % 1027,6 hPa 0,0 l/m 0,9 km/h (0 Bft) O-NO 0,00 h 0,000 mm 0,0 UV-I 0 W/m 4,9 C 5,5 C 1,8 km/h (1 Bft) 99,24 %
12.11.2015 22:00 5,7 C 96 % 1027,1 hPa 0,0 l/m 2,0 km/h (1 Bft) O 0,00 h 0,000 mm 0,0 UV-I 0 W/m 5,1 C 5,7 C 3,5 km/h (1 Bft) 99,60 %
12.11.2015 23:00 4,5 C 96 % 1026,7 hPa 0,0 l/m 0,6 km/h (0 Bft) O 0,00 h 0,000 mm 0,0 UV-I 0 W/m 4,0 C 4,5 C 1,4 km/h (1 Bft) 99,42 %
13.11.2015 00:00 4,1 C 97 % 1026,4 hPa 0,0 l/m 1,1 km/h (1 Bft) O 0,00 h 0,000 mm 0,0 UV-I 0 W/m 3,8 C 4,1 C 2,5 km/h (1 Bft) 99,45 %
13.11.2015 01:00 3,6 C 98 % 1026,0 hPa 0,0 l/m 0,2 km/h (0 Bft) S-SO 0,00 h 0,000 mm 0,0 UV-I 0 W/m 3,3 C 3,6 C 0,7 km/h (0 Bft) 99,16 %
13.11.2015 02:00 3,2 C 98 % 1025,8 hPa 0,0 l/m 0,4 km/h (0 Bft) SO 0,00 h 0,000 mm 0,0 UV-I 0 W/m 2,9 C 3,2 C 1,1 km/h (1 Bft) 99,29 %
13.11.2015 03:00 3,4 C 98 % 1025,4 hPa 0,0 l/m 0,8 km/h (0 Bft) S-SO 0,00 h 0,000 mm 0,0 UV-I 0 W/m 3,1 C 3,4 C 1,9 km/h (1 Bft) 99,09 %
13.11.2015 04:00 2,6 C 98 % 1025,5 hPa 0,0 l/m 2,2 km/h (1 Bft) S-SW 0,00 h 0,000 mm 0,0 UV-I 0 W/m 2,3 C 2,6 C 3,6 km/h (1 Bft) 99,26 %
13.11.2015 05:00 1,4 C 98 % 1025,5 hPa 0,0 l/m 2,2 km/h (1 Bft) SW 0,00 h 0,000 mm 0,0 UV-I 0 W/m 1,2 C 1,4 C 3,7 km/h (1 Bft) 99,46 %
13.11.2015 06:00 2,0 C 98 % 1025,7 hPa 0,0 l/m 2,4 km/h (1 Bft) SW 0,00 h 0,000 mm 0,0 UV-I 0 W/m 1,7 C 2,0 C 4,1 km/h (1 Bft) 98,71 %
13.11.2015 07:00 2,3 C 98 % 1026,2 hPa 0,0 l/m 1,8 km/h (1 Bft) SW 0,08 h 0,000 mm 0,0 UV-I 21 W/m 2,0 C 2,3 C 3,2 km/h (1 Bft) 99,10 %
13.11.2015 08:00 2,8 C 98 % 1026,8 hPa 0,0 l/m 2,5 km/h (1 Bft) SW 0,02 h 0,000 mm 0,0 UV-I 70 W/m 2,5 C 2,8 C 4,2 km/h (1 Bft) 99,34 %
13.11.2015 09:00 3,7 C 98 % 1027,3 hPa 0,0 l/m 2,5 km/h (1 Bft) SW 0,00 h 0,025 mm 0,4 UV-I 103 W/m 3,4 C 3,7 C 4,0 km/h (1 Bft) 98,80 %
13.11.2015 10:00 4,7 C 99 % 1027,5 hPa 0,0 l/m 1,9 km/h (1 Bft) SW 0,00 h 0,051 mm 0,6 UV-I 140 W/m 4,6 C 4,7 C 3,4 km/h (1 Bft) 99,16 %
13.11.2015 11:00 5,5 C 98 % 1027,2 hPa 0,0 l/m 1,2 km/h (1 Bft) N 0,00 h 0,051 mm 0,8 UV-I 174 W/m 5,3 C 5,5 C 2,5 km/h (1 Bft) 99,39 %
13.11.2015 12:00 6,3 C 99 % 1026,7 hPa 0,0 l/m 1,1 km/h (1 Bft) N 0,32 h 0,076 mm 0,9 UV-I 202 W/m 6,1 C 6,3 C 2,3 km/h (1 Bft) 99,27 %
13.11.2015 13:00 7,6 C 96 % 1026,3 hPa 0,0 l/m 0,9 km/h (0 Bft) N 0,65 h 0,076 mm 0,9 UV-I 231 W/m 7,1 C 7,6 C 2,2 km/h (1 Bft) 98,90 %
13.11.2015 14:00 8,7 C 91 % 1025,9 hPa 0,0 l/m 1,1 km/h (0 Bft) SW 0,45 h 0,102 mm 0,5 UV-I 149 W/m 7,3 C 8,7 C 2,2 km/h (1 Bft) 99,40 %
13.11.2015 15:00 8,7 C 92 % 1025,9 hPa 0,0 l/m 1,4 km/h (1 Bft) S 0,00 h 0,076 mm 0,0 UV-I 46 W/m 7,4 C 8,7 C 2,7 km/h (1 Bft) 99,26 %
13.11.2015 16:00 8,3 C 93 % 1025,9 hPa 0,0 l/m 0,5 km/h (0 Bft) S 0,00 h 0,026 mm 0,0 UV-I 9 W/m 7,2 C 8,3 C 1,2 km/h (1 Bft) 98,98 %
13.11.2015 17:00 7,6 C 95 % 1026,0 hPa 0,0 l/m 0,8 km/h (0 Bft) SO 0,00 h 0,000 mm 0,0 UV-I 0 W/m 6,7 C 7,6 C 1,7 km/h (1 Bft) 99,49 %
13.11.2015 18:00 7,6 C 95 % 1026,1 hPa 0,0 l/m 0,5 km/h (0 Bft) SO 0,00 h 0,000 mm 0,0 UV-I 0 W/m 6,8 C 7,6 C 1,6 km/h (1 Bft) 99,54 %
13.11.2015 19:00 7,5 C 95 % 1026,3 hPa 0,0 l/m 0,5 km/h (0 Bft) SO 0,00 h 0,000 mm 0,0 UV-I 0 W/m 6,7 C 7,5 C 2,3 km/h (1 Bft) 99,71 %
13.11.2015 20:00 7,3 C 95 % 1026,3 hPa 0,0 l/m 0,4 km/h (0 Bft) SW 0,00 h 0,000 mm 0,0 UV-I 0 W/m 6,5 C 7,3 C 2,0 km/h (1 Bft) 99,28 %
13.11.2015 21:00 8,2 C 90 % 1026,1 hPa 0,0 l/m 2,1 km/h (1 Bft) S-SW 0,00 h 0,000 mm 0,0 UV-I 0 W/m 6,7 C 8,2 C 4,7 km/h (1 Bft) 99,44 %
13.11.2015 22:00 8,5 C 88 % 1025,9 hPa 0,0 l/m 1,1 km/h (1 Bft) S-SW 0,00 h 0,000 mm 0,0 UV-I 0 W/m 6,6 C 8,5 C 2,8 km/h (1 Bft) 98,79 %
13.11.2015 23:00 9,2 C 86 % 1025,5 hPa 0,0 l/m 5,4 km/h (1 Bft) SW 0,00 h 0,000 mm 0,0 UV-I 0 W/m 7,0 C 9,1 C 8,9 km/h (2 Bft) 99,80 %
14.11.2015 00:00 9,8 C 86 % 1025,7 hPa 0,2 l/m 8,0 km/h (2 Bft) W 0,00 h 0,000 mm 0,0 UV-I 0 W/m 7,5 C 8,5 C 13,0 km/h (3 Bft) 99,50 %
14.11.2015 01:00 9,9 C 90 % 1025,6 hPa 0,2 l/m 10,7 km/h (2 Bft) SW 0,00 h 0,025 mm 0,0 UV-I 0 W/m 8,4 C 7,2 C 16,8 km/h (3 Bft) 99,35 %
14.11.2015 02:00 10,5 C 89 % 1025,6 hPa 0,6 l/m 12,2 km/h (3 Bft) SW 0,00 h 0,026 mm 0,0 UV-I 0 W/m 8,8 C 7,0 C 18,6 km/h (3 Bft) 98,69 %
14.11.2015 03:00 9,3 C 89 % 1026,7 hPa 0,8 l/m 12,6 km/h (3 Bft) W 0,00 h 0,025 mm 0,0 UV-I 0 W/m 7,5 C 5,5 C 19,5 km/h (3 Bft) 99,18 %
14.11.2015 04:00 8,7 C 87 % 1027,3 hPa 0,0 l/m 10,9 km/h (2 Bft) W 0,00 h 0,026 mm 0,0 UV-I 0 W/m 6,7 C 5,8 C 17,1 km/h (3 Bft) 99,43 %
14.11.2015 05:00 9,0 C 84 % 1028,0 hPa 0,0 l/m 11,7 km/h (2 Bft) W 0,00 h 0,025 mm 0,0 UV-I 0 W/m 6,4 C 5,6 C 18,3 km/h (3 Bft) 99,28 %
14.11.2015 06:00 8,9 C 81 % 1028,5 hPa 0,0 l/m 11,6 km/h (2 Bft) W 0,00 h 0,025 mm 0,0 UV-I 0 W/m 5,9 C 5,5 C 17,0 km/h (3 Bft) 99,58 %
14.11.2015 07:00 8,6 C 80 % 1028,9 hPa 0,0 l/m 10,2 km/h (2 Bft) W 0,00 h 0,026 mm 0,0 UV-I 23 W/m 5,4 C 6,0 C 15,6 km/h (3 Bft) 99,67 %
14.11.2015 08:00 8,6 C 77 % 1029,5 hPa 0,0 l/m 7,7 km/h (2 Bft) W 0,08 h 0,025 mm 0,0 UV-I 73 W/m 4,7 C 7,4 C 12,6 km/h (3 Bft) 99,54 %
14.11.2015 09:00 8,7 C 75 % 1029,5 hPa 0,0 l/m 7,8 km/h (2 Bft) W 0,00 h 0,051 mm 0,0 UV-I 115 W/m 4,5 C 7,2 C 15,8 km/h (3 Bft) 99,83 %
14.11.2015 10:00 8,8 C 73 % 1029,5 hPa 0,0 l/m 8,3 km/h (2 Bft) W-SW 0,00 h 0,076 mm 0,5 UV-I 141 W/m 4,3 C 7,4 C 17,6 km/h (3 Bft) 98,94 %
14.11.2015 11:00 9,2 C 74 % 1028,8 hPa 0,0 l/m 7,7 km/h (2 Bft) W 0,00 h 0,076 mm 0,5 UV-I 102 W/m 4,8 C 8,1 C 13,1 km/h (3 Bft) 99,26 %
14.11.2015 12:00 9,5 C 75 % 1028,1 hPa 0,0 l/m 8,6 km/h (2 Bft) W 0,02 h 0,077 mm 0,6 UV-I 122 W/m 5,4 C 8,0 C 14,3 km/h (3 Bft) 99,40 %
14.11.2015 13:00 10,7 C 69 % 1027,3 hPa 0,0 l/m 13,8 km/h (3 Bft) W 0,80 h 0,076 mm 0,7 UV-I 291 W/m 5,1 C 6,6 C 21,7 km/h (4 Bft) 99,58 %
14.11.2015 14:00 10,4 C 66 % 1026,9 hPa 0,0 l/m 11,7 km/h (2 Bft) W 0,53 h 0,178 mm 0,4 UV-I 150 W/m 4,4 C 7,3 C 18,4 km/h (3 Bft) 99,08 %
14.11.2015 15:00 10,1 C 67 % 1026,6 hPa 0,0 l/m 9,2 km/h (2 Bft) W 0,38 h 0,101 mm 0,0 UV-I 70 W/m 4,2 C 8,2 C 14,8 km/h (3 Bft) 99,27 %
14.11.2015 16:00 8,7 C 65 % 1026,8 hPa 0,0 l/m 6,4 km/h (2 Bft) W 0,03 h 0,076 mm 0,0 UV-I 11 W/m 2,6 C 8,1 C 10,3 km/h (2 Bft) 99,30 %
14.11.2015 17:00 7,6 C 71 % 1026,8 hPa 0,0 l/m 4,6 km/h (1 Bft) W 0,00 h 0,026 mm 0,0 UV-I 0 W/m 2,7 C 7,6 C 7,4 km/h (2 Bft) 99,42 %
14.11.2015 18:00 7,7 C 72 % 1026,7 hPa 0,0 l/m 5,7 km/h (1 Bft) SW 0,00 h 0,025 mm 0,0 UV-I 0 W/m 3,0 C 7,4 C 9,1 km/h (2 Bft) 99,47 %
14.11.2015 19:00 7,6 C 75 % 1026,4 hPa 0,0 l/m 3,8 km/h (1 Bft) W 0,00 h 0,026 mm 0,0 UV-I 0 W/m 3,4 C 7,6 C 6,4 km/h (2 Bft) 99,26 %
14.11.2015 20:00 7,4 C 78 % 1025,9 hPa 0,0 l/m 4,7 km/h (1 Bft) SW 0,00 h 0,025 mm 0,0 UV-I 0 W/m 3,9 C 7,3 C 7,3 km/h (2 Bft) 99,30 %
14.11.2015 21:00 7,1 C 81 % 1025,3 hPa 0,0 l/m 3,6 km/h (1 Bft) SW 0,00 h 0,025 mm 0,0 UV-I 0 W/m 4,0 C 7,1 C 5,7 km/h (1 Bft) 99,31 %
14.11.2015 22:00 7,0 C 81 % 1024,2 hPa 0,0 l/m 4,3 km/h (1 Bft) SW 0,00 h 0,000 mm 0,0 UV-I 0 W/m 4,0 C 7,0 C 6,3 km/h (2 Bft) 99,19 %
14.11.2015 23:00 7,8 C 77 % 1023,5 hPa 0,0 l/m 3,5 km/h (1 Bft) W 0,00 h 0,000 mm 0,0 UV-I 0 W/m 4,1 C 7,8 C 5,6 km/h (1 Bft) 99,27 %
15.11.2015 00:00 7,8 C 77 % 1022,6 hPa 0,0 l/m 3,4 km/h (1 Bft) W 0,00 h 0,000 mm 0,0 UV-I 0 W/m 4,0 C 7,7 C 5,8 km/h (2 Bft) 99,43 %
15.11.2015 01:00 7,8 C 78 % 1021,8 hPa 0,0 l/m 4,2 km/h (1 Bft) W 0,00 h 0,000 mm 0,0 UV-I 0 W/m 4,2 C 7,8 C 6,9 km/h (2 Bft) 99,33 %
15.11.2015 02:00 8,0 C 80 % 1021,5 hPa 0,0 l/m 5,1 km/h (1 Bft) W-SW 0,00 h 0,025 mm 0,0 UV-I 0 W/m 4,7 C 7,9 C 8,4 km/h (2 Bft) 99,26 %
15.11.2015 03:00 8,0 C 83 % 1021,1 hPa 0,4 l/m 9,5 km/h (2 Bft) W 0,00 h 0,026 mm 0,0 UV-I 0 W/m 5,3 C 5,9 C 14,9 km/h (3 Bft) 98,94 %
15.11.2015 04:00 7,2 C 90 % 1020,5 hPa 1,0 l/m 6,6 km/h (2 Bft) W 0,00 h 0,025 mm 0,0 UV-I 0 W/m 5,7 C 6,6 C 10,5 km/h (2 Bft) 99,54 %
15.11.2015 05:00 7,3 C 90 % 1019,6 hPa 0,8 l/m 7,1 km/h (2 Bft) W 0,00 h 0,000 mm 0,0 UV-I 0 W/m 5,8 C 6,4 C 11,3 km/h (2 Bft) 98,90 %
15.11.2015 06:00 7,0 C 93 % 1018,6 hPa 1,0 l/m 3,9 km/h (1 Bft) W 0,00 h 0,000 mm 0,0 UV-I 0 W/m 5,9 C 6,8 C 6,2 km/h (2 Bft) 99,15 %
15.11.2015 07:00 7,2 C 92 % 1017,7 hPa 0,8 l/m 4,0 km/h (1 Bft) W-NW 0,00 h 0,000 mm 0,0 UV-I 10 W/m 6,0 C 6,9 C 6,7 km/h (2 Bft) 99,59 %
15.11.2015 08:00 7,2 C 94 % 1017,0 hPa 0,0 l/m 0,7 km/h (0 Bft) NW 0,00 h 0,000 mm 0,0 UV-I 33 W/m 6,2 C 7,2 C 1,7 km/h (1 Bft) 99,42 %
15.11.2015 09:00 7,6 C 93 % 1016,4 hPa 0,6 l/m 0,6 km/h (0 Bft) NW 0,00 h 0,026 mm 0,0 UV-I 54 W/m 6,6 C 7,6 C 1,6 km/h (1 Bft) 99,17 %
15.11.2015 10:00 7,9 C 93 % 1015,4 hPa 0,2 l/m 0,8 km/h (0 Bft) N 0,00 h 0,025 mm 0,5 UV-I 63 W/m 6,8 C 7,9 C 1,7 km/h (1 Bft) 98,95 %
15.11.2015 11:00 8,6 C 91 % 1014,8 hPa 0,0 l/m 2,9 km/h (1 Bft) N 0,00 h 0,025 mm 0,6 UV-I 143 W/m 7,2 C 8,6 C 4,9 km/h (1 Bft) 99,11 %
15.11.2015 12:00 9,6 C 87 % 1014,1 hPa 0,0 l/m 5,0 km/h (1 Bft) W 0,00 h 0,077 mm 0,7 UV-I 161 W/m 7,5 C 9,4 C 8,5 km/h (2 Bft) 99,40 %
15.11.2015 13:00 11,0 C 80 % 1013,7 hPa 0,0 l/m 4,9 km/h (1 Bft) W 0,62 h 0,076 mm 0,7 UV-I 231 W/m 7,7 C 10,9 C 9,4 km/h (2 Bft) 99,36 %
15.11.2015 14:00 11,5 C 80 % 1013,7 hPa 0,0 l/m 5,2 km/h (1 Bft) W 0,22 h 0,127 mm 0,5 UV-I 128 W/m 8,2 C 11,3 C 9,8 km/h (2 Bft) 99,67 %
15.11.2015 15:00 11,4 C 80 % 1014,0 hPa 0,0 l/m 6,1 km/h (2 Bft) W 0,47 h 0,076 mm 0,0 UV-I 56 W/m 8,1 C 10,9 C 10,6 km/h (2 Bft) 98,81 %
15.11.2015 16:00 11,6 C 79 % 1013,8 hPa 0,0 l/m 6,7 km/h (2 Bft) W 0,25 h 0,051 mm 0,0 UV-I 20 W/m 8,0 C 10,9 C 11,7 km/h (2 Bft) 99,62 %
15.11.2015 17:00 11,5 C 79 % 1013,4 hPa 0,0 l/m 1,5 km/h (1 Bft) W-NW 0,00 h 0,025 mm 0,0 UV-I 0 W/m 8,0 C 11,5 C 3,0 km/h (1 Bft) 99,25 %
15.11.2015 18:00 10,4 C 84 % 1013,4 hPa 0,0 l/m 0,6 km/h (0 Bft) N-NW 0,00 h 0,000 mm 0,0 UV-I 0 W/m 7,8 C 10,4 C 1,5 km/h (1 Bft) 99,16 %
15.11.2015 19:00 10,9 C 82 % 1013,7 hPa 0,0 l/m 2,7 km/h (1 Bft) W 0,00 h 0,000 mm 0,0 UV-I 0 W/m 7,9 C 10,8 C 4,9 km/h (1 Bft) 99,72 %
15.11.2015 20:00 15,1 C 62 % 1014,0 hPa 0,2 l/m 10,9 km/h (2 Bft) W 0,00 h 0,000 mm 0,0 UV-I 0 W/m 7,7 C 13,0 C 16,4 km/h (3 Bft) 99,41 %
15.11.2015 21:00 16,4 C 54 % 1014,7 hPa 0,0 l/m 13,9 km/h (3 Bft) W 0,00 h 0,051 mm 0,0 UV-I 0 W/m 7,0 C 13,2 C 20,5 km/h (4 Bft) 99,29 %
15.11.2015 22:00 16,2 C 54 % 1015,1 hPa 0,0 l/m 13,2 km/h (3 Bft) W 0,00 h 0,076 mm 0,0 UV-I 0 W/m 6,8 C 13,3 C 20,8 km/h (4 Bft) 98,26 %
15.11.2015 23:00 15,9 C 54 % 1015,5 hPa 0,0 l/m 13,4 km/h (3 Bft) W 0,00 h 0,076 mm 0,0 UV-I 0 W/m 6,6 C 12,9 C 25,2 km/h (4 Bft) 99,16 %
Min-Datum _ 13.11.15 10.11.15 15.11.15 - 09.11.15 - - - - - 13.11.15 13.11.15 09.11.15 12.11.15
_ Min-Zeit 05:29 14:07 17:46 - 00:09 - - - - - 05:29 05:29 00:09 02:01
Minimum _ 1,2 C 49 % 1013,0 hPa - 0,0 km/h (0 Bft) - - - - - 0,9 C 1,2 C 0,0 km/h (0 Bft) 83,33 %
Max-Datum _ 10.11.15 09.11.15 14.11.15 09.11.15 14.11.15 - 09.11.15 11.11.15 11.11.15 11.11.15 09.11.15 10.11.15 14.11.15 09.11.15
_ Max-Zeit 14:32 00:00 08:32 11:31 03:35 - 07:55 13:00 11:33 11:51 16:45 14:32 13:46 00:00
Maximum _ 17,9 C 99 % 1029,7 hPa 2,0 l/m 20,5 km/h
W (4 Bft)
- 0,02 h 0,228 mm 1,6 UV-I 587 W/m 13,3 C 17,9 C 40,2 km/h
W (6 Bft)
100,00 %
Durchschnitt _ 10,2 C 82 % 1024,4 hPa #9,4 l/m 4,2 km/h (1 Bft) W #15:24 h #6,071 mm 0,7 UV-I 113 W/m 7,1 C 9,7 C 7,1 km/h (2 Bft) 99,24 %